Strona główna
METAR-TAF:

METAR-TAF

Lotnisko :

Carlisle, Anglia

Szerokość geograficzna: 54-56-15N, Długość geograficzna: 002-48-33W, wysokość: 57 m

Aktualna obserwacja pogody

Raport powstał 3 minut temu, godzina 14:50 UTC
Wiatr 8 kt od wschodnio-północny wschód, zmienny między północny wschód i wschodnio-południowy wschód
Temperatura 11°C
Wilgotność 62%
Ciśnienie 1029 hPa
Widzialność: 9000 m
Mało chmury na wysokości 3500 ft
Przerywane chmury na wysokości 4500 ft

METAR: EGNC 271450Z 07008KT 050V110 9000 FEW035 BKN045 11/04 Q1029

czas: 14:53 (14:53 UTC)

Prognoza

Raport powstał 24 godziny i 57 minut temu, godzina 13:56 UTC
Prognoza ważna od 27 godzina 15 UTC do 27 godzina 18 UTC
Wiatr 7 kt od wschodnio-północny wschód
Widzialność 10 km lub więcej
Mało chmury na wysokości 4500 ft
Przejściowo
od 27 godzina 15 UTC do 27 godzina 18 UTC
Widzialność: 8000 m

TAF: EGNC 271356Z 2715/2718 07007KT 9999 FEW045 TEMPO 2715/2718 8000

Obserwacja i prognoza pogody dla ponad 4000 lotnisk (raport METAR i TAF).

Dostępne stacje oznaczono żółtymi i czerwonymi punktami na mapie.

Najedź kursorem aby zobaczyć nazwę stacji.

Kliknij aby zobaczyć obserwacje i prognozy pogody.

Aby zmienić mapę: kliknij na zielony przycisk z czarnym krzyżykiem, aby powiększyć; na zielony przycisk z myślnikiem, aby pomniejszyć; na zielone strzałki, aby przejść do map sąsiednich.


METAR-TAF: